Time;durP1;ratioP1;P1;durP2;ratioP2;P2;SDS_P1;SDS_P2;PMS_P1;PMS_P2;Temp;Humidity;BMP_temperature;BMP_pressure;BME280_temperature;BME280_humidity;BME280_pressure;Samples;Min_cycle;Max_cycle;Signal;HPM_P1;HPM_P2
2023/06/04 00:01:15;;;;;;;0.40;0.27;;;13.40;17.00;;;;;;5040489;28;20425;-72
2023/06/04 00:03:43;;;;;;;1.08;0.70;;;13.40;17.30;;;;;;5040847;28;21008;-73
2023/06/04 00:06:10;;;;;;;0.30;0.30;;;13.40;18.00;;;;;;5040091;28;20511;-72
2023/06/04 00:08:37;;;;;;;0.30;0.30;;;13.40;17.30;;;;;;5041399;28;20478;-72
2023/06/04 00:11:07;;;;;;;1.05;0.60;;;13.30;16.90;;;;;;5045544;28;20512;-73
2023/06/04 00:13:39;;;;;;;0.70;0.70;;;13.20;16.80;;;;;;5040358;28;20460;-72
2023/06/04 00:16:08;;;;;;;0.50;0.43;;;13.10;16.10;;;;;;5069717;28;20466;-72
2023/06/04 00:18:34;;;;;;;0.32;0.32;;;13.10;16.10;;;;;;5042883;28;20440;-72
2023/06/04 00:21:04;;;;;;;0.30;0.30;;;13.10;16.70;;;;;;5042058;28;20958;-73
2023/06/04 00:23:31;;;;;;;0.40;0.40;;;13.00;16.00;;;;;;5041546;28;20425;-73
2023/06/04 00:25:59;;;;;;;0.45;0.45;;;13.00;16.00;;;;;;5041344;28;20432;-73
2023/06/04 00:28:25;;;;;;;0.60;0.60;;;12.90;15.40;;;;;;5033372;28;20429;-73
2023/06/04 00:30:52;;;;;;;0.75;0.45;;;12.80;15.70;;;;;;5071551;28;20435;-73
2023/06/04 00:33:19;;;;;;;1.20;0.60;;;12.80;15.30;;;;;;5039488;28;21010;-73
2023/06/04 00:35:46;;;;;;;0.30;0.30;;;12.90;15.40;;;;;;5041922;28;20865;-73
2023/06/04 00:38:13;;;;;;;0.45;0.45;;;12.80;26.30;;;;;;5039588;28;20527;-73
2023/06/04 00:40:39;;;;;;;0.50;0.50;;;12.80;16.40;;;;;;5041892;28;20428;-73
2023/06/04 00:43:06;;;;;;;0.20;0.20;;;12.70;15.00;;;;;;5042563;28;20499;-73
2023/06/04 00:45:34;;;;;;;0.50;0.40;;;12.70;14.80;;;;;;5042378;28;20425;-72
2023/06/04 00:48:01;;;;;;;0.43;0.43;;;12.70;15.50;;;;;;5039724;28;20445;-73
2023/06/04 00:50:27;;;;;;;0.30;0.30;;;12.70;15.40;;;;;;5035566;28;20466;-72
2023/06/04 00:52:55;;;;;;;1.07;0.67;;;12.70;15.30;;;;;;5042425;28;20877;-73
2023/06/04 00:55:21;;;;;;;0.60;0.60;;;12.70;15.50;;;;;;5041731;28;20429;-73
2023/06/04 00:57:48;;;;;;;0.47;0.40;;;12.60;16.20;;;;;;5040727;28;20520;-72
2023/06/04 01:00:15;;;;;;;0.45;0.45;;;12.60;15.00;;;;;;5036775;28;20434;-72
2023/06/04 01:02:44;;;;;;;0.50;0.47;;;12.50;14.20;;;;;;5039678;28;20487;-73
2023/06/04 01:05:36;;;;;;;0.25;0.25;;;12.50;14.50;;;;;;5040572;28;20824;-72
2023/06/04 01:08:05;;;;;;;0.75;0.75;;;12.50;14.50;;;;;;5039233;28;20428;-73
2023/06/04 01:10:32;;;;;;;0.77;0.47;;;12.50;25.80;;;;;;5040962;28;20524;-73
2023/06/04 01:12:58;;;;;;;0.30;0.30;;;12.50;15.10;;;;;;5041987;28;20504;-73
2023/06/04 01:15:25;;;;;;;0.50;0.50;;;12.60;14.80;;;;;;5041122;28;20808;-73
2023/06/04 01:18:02;;;;;;;0.30;0.30;;;12.50;14.80;;;;;;5042225;28;20795;-72
2023/06/04 01:20:39;;;;;;;0.32;0.32;;;12.60;14.80;;;;;;5036739;28;20437;-73
2023/06/04 01:23:44;;;;;;;0.60;0.60;;;12.60;15.50;;;;;;5039311;28;20520;-73
2023/06/04 01:26:14;;;;;;;0.50;0.50;;;12.50;14.70;;;;;;5034965;28;20772;-73
2023/06/04 01:28:43;;;;;;;0.40;0.40;;;12.50;14.90;;;;;;5064708;28;20449;-73
2023/06/04 01:31:12;;;;;;;0.70;0.70;;;12.50;14.80;;;;;;5039836;28;20765;-73
2023/06/04 01:33:41;;;;;;;0.95;0.40;;;12.50;14.60;;;;;;5033587;28;20433;-73
2023/06/04 01:36:10;;;;;;;0.50;0.35;;;12.40;14.80;;;;;;5039434;28;20980;-73
2023/06/04 01:38:37;;;;;;;2.63;0.40;;;12.40;14.40;;;;;;5039037;28;20428;-73
2023/06/04 01:41:06;;;;;;;0.55;0.45;;;12.40;14.60;;;;;;5041849;28;20436;-73
2023/06/04 01:43:35;;;;;;;0.75;0.38;;;12.40;15.10;;;;;;5039574;28;20425;-73
2023/06/04 01:46:03;;;;;;;0.55;0.50;;;12.40;14.70;;;;;;5037890;28;20482;-73
2023/06/04 01:48:31;;;;;;;0.82;0.52;;;12.30;14.10;;;;;;5039185;28;20440;-73
2023/06/04 01:50:58;;;;;;;8.70;0.70;;;12.30;14.20;;;;;;5069584;28;20576;-72
2023/06/04 01:53:26;;;;;;;0.60;0.60;;;12.30;14.10;;;;;;5041398;28;20449;-72
2023/06/04 01:55:52;;;;;;;0.50;0.40;;;12.30;14.30;;;;;;5041197;28;20531;-73
2023/06/04 01:58:22;;;;;;;0.80;0.45;;;12.30;25.40;;;;;;5035493;28;20459;-72
2023/06/04 02:00:54;;;;;;;0.30;0.30;;;12.20;14.20;;;;;;5034914;28;20464;-73
2023/06/04 02:03:22;;;;;;;0.50;0.40;;;12.20;13.70;;;;;;5074225;28;20433;-73
2023/06/04 02:05:49;;;;;;;0.38;0.38;;;12.20;13.60;;;;;;5041757;28;20434;-73
2023/06/04 02:08:25;;;;;;;0.40;0.40;;;12.20;13.70;;;;;;5039135;28;20426;-73
2023/06/04 02:10:52;;;;;;;0.40;0.40;;;12.20;13.60;;;;;;5039867;28;20483;-73
2023/06/04 02:13:18;;;;;;;0.30;0.30;;;12.10;13.70;;;;;;5041298;28;20433;-73
2023/06/04 02:15:45;;;;;;;0.60;0.60;;;12.10;13.50;;;;;;5073563;28;20433;-73
2023/06/04 02:18:22;;;;;;;1.30;0.55;;;12.20;14.70;;;;;;5040868;28;20567;-73
2023/06/04 02:20:50;;;;;;;0.50;0.50;;;12.10;13.80;;;;;;5039636;28;20985;-73
2023/06/04 02:23:19;;;;;;;0.80;0.60;;;12.10;13.90;;;;;;5039699;28;20432;-72
2023/06/04 02:25:47;;;;;;;0.30;0.30;;;12.00;13.50;;;;;;5040202;28;20440;-73
2023/06/04 02:28:14;;;;;;;0.32;0.32;;;12.00;13.40;;;;;;5069461;28;20436;-72
2023/06/04 02:30:43;;;;;;;0.50;0.50;;;12.00;13.50;;;;;;5038842;28;20429;-73
2023/06/04 02:33:09;;;;;;;0.40;0.40;;;11.90;13.80;;;;;;5040005;28;20425;-73
2023/06/04 02:35:37;;;;;;;0.60;0.30;;;11.90;14.20;;;;;;5041227;28;20429;-73
2023/06/04 02:38:07;;;;;;;0.50;0.50;;;11.90;13.90;;;;;;5042142;28;20429;-73
2023/06/04 02:40:38;;;;;;;1.35;0.60;;;11.90;13.10;;;;;;5040107;28;20437;-73
2023/06/04 02:43:04;;;;;;;1.00;0.30;;;11.90;13.30;;;;;;5038124;28;20847;-73
2023/06/04 02:45:32;;;;;;;0.60;0.60;;;11.90;13.20;;;;;;5040661;28;20536;-72
2023/06/04 02:47:59;;;;;;;0.75;0.47;;;11.80;13.20;;;;;;5041970;28;20437;-73
2023/06/04 02:50:25;;;;;;;0.97;0.67;;;11.80;13.40;;;;;;5044671;28;20516;-73
2023/06/04 02:52:52;;;;;;;0.43;0.40;;;11.80;13.80;;;;;;5044345;28;20468;-73
2023/06/04 02:55:22;;;;;;;0.40;0.30;;;11.70;13.00;;;;;;5044401;28;20432;-73
2023/06/04 02:57:48;;;;;;;0.50;0.50;;;11.70;12.90;;;;;;5039096;28;20490;-72
2023/06/04 03:00:17;;;;;;;0.30;0.30;;;11.70;12.60;;;;;;5044813;28;20529;-73
2023/06/04 03:02:48;;;;;;;1.00;0.40;;;11.60;12.50;;;;;;5042491;28;20464;-72
2023/06/04 03:05:17;;;;;;;0.35;0.35;;;11.50;12.30;;;;;;5044006;28;20432;-73
2023/06/04 03:07:46;;;;;;;0.43;0.43;;;11.50;12.70;;;;;;5040755;28;20486;-74
2023/06/04 03:10:17;;;;;;;0.50;0.50;;;11.40;12.00;;;;;;5040939;28;20504;-73
2023/06/04 03:12:46;;;;;;;0.80;0.47;;;11.40;12.20;;;;;;5045389;28;22581;-73
2023/06/04 03:15:13;;;;;;;0.40;0.40;;;11.50;12.70;;;;;;5041829;28;20429;-73
2023/06/04 03:17:41;;;;;;;0.65;0.60;;;11.60;13.40;;;;;;5044408;28;20433;-73
2023/06/04 03:20:08;;;;;;;0.30;0.30;;;11.50;13.30;;;;;;5039509;28;20517;-72
2023/06/04 03:22:36;;;;;;;0.45;0.45;;;11.60;13.10;;;;;;5044310;28;20429;-73
2023/06/04 03:25:04;;;;;;;0.60;0.40;;;11.60;13.70;;;;;;5043954;28;20447;-73
2023/06/04 03:27:32;;;;;;;0.40;0.40;;;11.60;13.50;;;;;;5041616;28;20444;-73
2023/06/04 03:29:59;;;;;;;0.52;0.50;;;11.60;14.00;;;;;;5041969;28;20524;-73
2023/06/04 03:32:26;;;;;;;0.50;0.50;;;11.60;13.40;;;;;;5039230;28;20450;-73
2023/06/04 03:34:55;;;;;;;0.40;0.40;;;11.50;14.20;;;;;;5039493;28;20425;-73
2023/06/04 03:37:22;;;;;;;0.40;0.40;;;11.40;13.30;;;;;;5041571;28;20433;-72
2023/06/04 03:39:49;;;;;;;0.50;0.30;;;11.30;12.90;;;;;;5041269;28;20435;-73
2023/06/04 03:42:15;;;;;;;0.57;0.57;;;11.30;24.10;;;;;;5044031;28;20434;-72
2023/06/04 03:44:46;;;;;;;0.38;0.38;;;11.40;13.30;;;;;;5043564;28;21005;-73
2023/06/04 03:47:13;;;;;;;0.43;0.43;;;11.40;13.50;;;;;;5044549;28;20614;-73
2023/06/04 03:49:40;;;;;;;0.50;0.40;;;11.40;13.70;;;;;;5039125;28;20645;-73
2023/06/04 03:52:07;;;;;;;0.93;0.50;;;11.40;14.30;;;;;;5042409;28;20499;-72
2023/06/04 03:54:34;;;;;;;1.30;0.53;;;11.40;14.40;;;;;;5043223;28;20436;-73
2023/06/04 03:57:01;;;;;;;0.70;0.55;;;11.40;14.10;;;;;;5042578;28;20488;-73
2023/06/04 03:59:28;;;;;;;0.80;0.80;;;11.50;14.80;;;;;;5038538;28;20502;-73
2023/06/04 04:01:55;;;;;;;0.57;0.37;;;11.50;15.30;;;;;;5040120;28;20930;-73
2023/06/04 04:04:22;;;;;;;0.40;0.40;;;11.50;15.10;;;;;;5043372;28;20508;-73
2023/06/04 04:06:56;;;;;;;1.40;0.60;;;11.50;15.70;;;;;;5041567;28;20690;-73
2023/06/04 04:09:26;;;;;;;0.40;0.40;;;11.50;16.40;;;;;;5038356;28;20439;-73
2023/06/04 04:11:53;;;;;;;0.45;0.45;;;11.50;15.80;;;;;;5045136;28;20483;-73
2023/06/04 04:14:19;;;;;;;0.70;0.60;;;11.50;15.90;;;;;;5037890;28;21195;-73
2023/06/04 04:16:46;;;;;;;0.70;0.50;;;11.50;16.20;;;;;;5043159;28;20429;-73
2023/06/04 04:19:14;;;;;;;1.40;0.93;;;11.60;16.50;;;;;;5042975;28;20560;-73
2023/06/04 04:21:45;;;;;;;0.50;0.50;;;11.60;17.10;;;;;;5043381;28;20456;-73
2023/06/04 04:24:25;;;;;;;0.45;0.43;;;11.50;16.90;;;;;;5039704;28;20433;-73
2023/06/04 04:26:54;;;;;;;1.00;0.35;;;11.50;16.90;;;;;;5040900;28;20495;-74
2023/06/04 04:29:27;;;;;;;0.57;0.57;;;11.50;17.00;;;;;;5040491;28;20437;-73
2023/06/04 04:31:56;;;;;;;0.45;0.40;;;11.50;17.50;;;;;;5040667;28;20447;-73
2023/06/04 04:34:26;;;;;;;1.80;0.50;;;11.40;18.20;;;;;;5041135;28;20543;-73
2023/06/04 04:36:54;;;;;;;1.03;0.60;;;11.50;19.10;;;;;;5042159;28;20460;-74
2023/06/04 04:39:24;;;;;;;0.30;0.30;;;11.60;19.70;;;;;;5040873;28;20455;-74
2023/06/04 04:41:55;;;;;;;0.40;0.40;;;12.10;22.30;;;;;;5041883;28;20838;-72
2023/06/04 04:44:21;;;;;;;1.70;0.40;;;13.70;20.20;;;;;;5041349;28;20421;-71
2023/06/04 04:46:50;;;;;;;0.43;0.43;;;13.90;30.20;;;;;;5039902;28;20440;-71
2023/06/04 04:49:17;;;;;;;1.80;0.60;;;14.80;34.00;;;;;;5040501;28;20510;-71
2023/06/04 04:51:44;;;;;;;0.80;0.80;;;15.60;37.10;;;;;;5041730;28;20499;-71
2023/06/04 04:54:13;;;;;;;0.50;0.40;;;16.30;41.20;;;;;;5039502;28;20491;-72
2023/06/04 04:56:40;;;;;;;0.40;0.40;;;16.90;43.80;;;;;;5042068;28;20520;-72
2023/06/04 04:59:07;;;;;;;0.57;0.57;;;17.40;46.90;;;;;;5041554;28;20865;-72
2023/06/04 05:01:34;;;;;;;0.50;0.50;;;17.70;47.60;;;;;;5073329;28;20433;-72
2023/06/04 05:04:00;;;;;;;0.43;0.40;;;17.90;48.90;;;;;;5072326;28;20430;-72
2023/06/04 05:06:29;;;;;;;0.70;0.70;;;18.20;49.90;;;;;;5040406;28;20632;-72
2023/06/04 05:08:56;;;;;;;2.80;0.60;;;18.50;52.00;;;;;;5038758;28;20846;-72
2023/06/04 05:11:23;;;;;;;0.30;0.30;;;18.90;53.30;;;;;;5042603;28;20476;-72
2023/06/04 05:13:49;;;;;;;1.10;0.60;;;19.20;54.70;;;;;;5040965;28;20512;-72
2023/06/04 05:16:16;;;;;;;0.57;0.43;;;19.50;57.80;;;;;;5042001;28;20842;-72
2023/06/04 05:18:44;;;;;;;0.50;0.50;;;19.80;58.30;;;;;;5038051;28;20523;-72
2023/06/04 05:21:12;;;;;;;0.47;0.47;;;19.80;58.00;;;;;;5037758;28;21219;-72
2023/06/04 05:23:39;;;;;;;0.40;0.40;;;19.90;58.50;;;;;;5073540;28;20887;-72
2023/06/04 05:26:06;;;;;;;0.38;0.38;;;20.00;58.50;;;;;;5040646;28;20436;-72
2023/06/04 05:28:35;;;;;;;0.40;0.40;;;20.20;59.50;;;;;;5071890;28;20528;-72
2023/06/04 05:31:02;;;;;;;0.50;0.50;;;20.50;60.60;;;;;;5070586;28;20520;-73
2023/06/04 05:33:32;;;;;;;0.40;0.40;;;20.70;62.00;;;;;;5037270;28;20517;-72
2023/06/04 05:35:59;;;;;;;1.30;0.57;;;20.90;63.50;;;;;;5068535;28;20527;-73
2023/06/04 05:38:26;;;;;;;0.40;0.40;;;21.00;63.60;;;;;;5039332;28;20463;-73
2023/06/04 05:40:57;;;;;;;0.40;0.40;;;21.10;63.80;;;;;;5041478;28;20432;-71
2023/06/04 05:43:23;;;;;;;0.43;0.33;;;20.80;61.90;;;;;;5027984;28;20556;-71
2023/06/04 05:45:51;;;;;;;0.40;0.40;;;21.00;62.50;;;;;;5038392;28;20998;-71
2023/06/04 05:48:18;;;;;;;0.80;0.50;;;21.20;64.70;;;;;;5040279;28;21042;-71
2023/06/04 05:50:47;;;;;;;1.75;0.60;;;21.30;64.50;;;;;;5042107;28;20434;-71
2023/06/04 05:53:13;;;;;;;0.32;0.32;;;21.60;67.60;;;;;;5041108;28;20452;-71
2023/06/04 05:55:40;;;;;;;0.50;0.50;;;22.00;68.70;;;;;;5037737;28;20512;-71
2023/06/04 05:58:07;;;;;;;0.40;0.40;;;22.10;69.00;;;;;;5039960;28;20557;-71
2023/06/04 06:00:34;;;;;;;0.30;0.30;;;21.90;67.70;;;;;;5035359;28;20472;-71
2023/06/04 06:03:01;;;;;;;0.90;0.30;;;21.60;65.30;;;;;;5038756;28;20425;-71
2023/06/04 06:05:31;;;;;;;0.38;0.38;;;21.30;63.90;;;;;;5040381;28;20421;-71
2023/06/04 06:08:02;;;;;;;1.10;0.40;;;21.30;62.00;;;;;;5040504;28;22886;-71
2023/06/04 06:10:29;;;;;;;0.50;0.50;;;21.40;63.20;;;;;;5039425;28;20951;-72
2023/06/04 06:12:56;;;;;;;0.30;0.30;;;21.40;63.00;;;;;;5038312;28;20425;-72
2023/06/04 06:15:23;;;;;;;0.98;0.47;;;22.00;66.10;;;;;;5038992;28;20909;-72
2023/06/04 06:17:52;;;;;;;0.30;0.30;;;22.00;66.20;;;;;;5040988;28;20530;-72
2023/06/04 06:20:19;;;;;;;0.40;0.40;;;22.00;66.30;;;;;;5042248;28;20430;-72
2023/06/04 06:22:46;;;;;;;0.20;0.20;;;22.10;65.90;;;;;;5046253;28;20433;-72
2023/06/04 06:25:15;;;;;;;0.40;0.40;;;21.60;63.10;;;;;;5041822;28;20425;-72
2023/06/04 06:27:42;;;;;;;0.50;0.50;;;21.40;61.20;;;;;;5041990;28;20468;-72
2023/06/04 06:30:09;;;;;;;0.77;0.40;;;20.90;59.80;;;;;;5042470;28;20433;-72
2023/06/04 06:32:36;;;;;;;0.30;0.30;;;20.40;55.00;;;;;;5076805;28;20429;-72
2023/06/04 06:35:04;;;;;;;0.40;0.40;;;20.70;56.70;;;;;;5045055;28;20461;-72
2023/06/04 06:37:30;;;;;;;0.40;0.40;;;21.50;61.60;;;;;;5042228;28;20472;-72
2023/06/04 06:39:57;;;;;;;0.98;0.60;;;22.10;65.10;;;;;;5041865;28;20435;-72
2023/06/04 06:42:24;;;;;;;0.43;0.43;;;22.50;67.70;;;;;;5044899;28;21113;-72
2023/06/04 06:44:51;;;;;;;1.40;0.40;;;22.60;67.40;;;;;;5044543;28;20919;-73
2023/06/04 06:47:18;;;;;;;0.30;0.30;;;22.50;67.80;;;;;;5045516;28;20491;-72
2023/06/04 06:49:45;;;;;;;3.10;0.38;;;22.80;68.80;;;;;;5076044;28;20429;-72
2023/06/04 06:52:11;;;;;;;0.50;0.50;;;22.70;69.10;;;;;;5042991;28;20432;-73
2023/06/04 06:54:38;;;;;;;2.50;0.40;;;22.70;68.60;;;;;;5041079;28;20455;-72
2023/06/04 06:57:08;;;;;;;0.50;0.40;;;22.90;69.80;;;;;;5040761;28;20439;-72
2023/06/04 06:59:36;;;;;;;0.60;0.60;;;23.10;70.50;;;;;;5043683;28;20460;-73
2023/06/04 07:02:03;;;;;;;0.30;0.30;;;23.40;72.40;;;;;;5043611;28;20432;-72
2023/06/04 07:04:30;;;;;;;0.32;0.32;;;23.90;75.90;;;;;;5042274;28;20504;-72
2023/06/04 07:06:57;;;;;;;0.45;0.45;;;23.70;74.40;;;;;;5075033;28;20531;-72
2023/06/04 07:09:24;;;;;;;0.30;0.30;;;23.90;74.50;;;;;;5040677;28;20453;-72
2023/06/04 07:11:50;;;;;;;0.60;0.50;;;24.10;75.40;;;;;;5049460;28;20496;-72
2023/06/04 07:14:17;;;;;;;0.40;0.40;;;24.10;76.00;;;;;;5041658;28;20439;-72
2023/06/04 07:16:44;;;;;;;0.38;0.38;;;23.90;75.30;;;;;;5041796;28;20867;-72
2023/06/04 07:19:11;;;;;;;0.95;0.55;;;24.10;74.90;;;;;;5037283;28;20447;-72
2023/06/04 07:21:38;;;;;;;0.35;0.35;;;23.90;74.00;;;;;;5042903;28;20429;-72
2023/06/04 07:24:05;;;;;;;0.50;0.50;;;24.10;75.70;;;;;;5043113;28;20463;-73
2023/06/04 07:26:32;;;;;;;0.60;0.50;;;24.30;77.20;;;;;;5044251;28;20440;-72
2023/06/04 07:29:00;;;;;;;0.35;0.35;;;24.90;80.70;;;;;;5040878;28;20460;-73
2023/06/04 07:31:27;;;;;;;0.43;0.43;;;25.00;81.70;;;;;;5041980;28;20524;-73
2023/06/04 07:33:54;;;;;;;0.30;0.30;;;25.10;82.00;;;;;;5044018;28;20926;-72
2023/06/04 07:36:21;;;;;;;1.15;0.68;;;25.20;82.30;;;;;;5041414;28;20434;-73
2023/06/04 07:38:47;;;;;;;0.40;0.40;;;25.40;82.70;;;;;;5041160;28;20425;-72
2023/06/04 07:41:21;;;;;;;0.40;0.40;;;25.30;81.70;;;;;;5040875;28;20429;-73
2023/06/04 07:43:48;;;;;;;0.30;0.30;;;25.40;83.00;;;;;;5036004;28;20455;-73
2023/06/04 07:46:18;;;;;;;0.50;0.50;;;25.20;81.70;;;;;;5039957;28;21088;-72
2023/06/04 07:48:45;;;;;;;1.10;0.50;;;24.90;79.90;;;;;;5041629;28;20421;-73
2023/06/04 07:51:13;;;;;;;0.33;0.33;;;25.00;80.50;;;;;;5041966;28;20518;-73
2023/06/04 07:53:40;;;;;;;0.80;0.50;;;24.80;78.80;;;;;;5043356;28;20429;-73
2023/06/04 07:56:07;;;;;;;1.50;0.40;;;24.20;74.80;;;;;;5041290;28;20431;-73
2023/06/04 07:58:37;;;;;;;0.40;0.40;;;24.30;75.20;;;;;;5072557;28;20461;-72
2023/06/04 08:01:04;;;;;;;1.00;0.80;;;24.80;77.40;;;;;;5038624;28;20956;-74
2023/06/04 08:03:34;;;;;;;0.40;0.40;;;25.20;80.60;;;;;;5043306;28;20463;-74
2023/06/04 08:06:01;;;;;;;0.60;0.60;;;25.50;82.80;;;;;;5037487;28;20429;-72
2023/06/04 08:08:33;;;;;;;1.90;0.50;;;25.50;82.80;;;;;;5041695;28;20855;-73
2023/06/04 08:11:00;;;;;;;0.40;0.40;;;25.40;82.40;;;;;;5073399;28;20919;-72
2023/06/04 08:13:27;;;;;;;0.50;0.50;;;25.60;83.50;;;;;;5040775;28;20943;-73
2023/06/04 08:15:54;;;;;;;0.40;0.40;;;25.90;84.80;;;;;;5037331;28;20425;-73
2023/06/04 08:18:21;;;;;;;0.43;0.43;;;26.20;86.80;;;;;;5039052;28;20433;-72
2023/06/04 08:20:47;;;;;;;0.50;0.50;;;25.90;85.30;;;;;;5037310;28;20431;-73
2023/06/04 08:23:14;;;;;;;2.08;0.63;;;25.70;83.60;;;;;;5035670;28;20434;-73
2023/06/04 08:25:41;;;;;;;0.50;0.50;;;25.70;83.40;;;;;;5034798;28;20763;-73
2023/06/04 08:28:08;;;;;;;0.50;0.50;;;25.30;82.10;;;;;;5035260;28;20425;-73
2023/06/04 08:30:35;;;;;;;0.70;0.50;;;25.00;79.90;;;;;;5037946;28;20445;-73
2023/06/04 08:33:02;;;;;;;0.40;0.40;;;25.30;80.80;;;;;;5039890;28;20439;-73
2023/06/04 08:35:29;;;;;;;0.30;0.30;;;25.30;82.00;;;;;;5035637;28;20785;-73
2023/06/04 08:37:57;;;;;;;0.50;0.40;;;25.30;80.90;;;;;;5038246;28;20963;-73
2023/06/04 08:40:24;;;;;;;0.55;0.55;;;25.20;80.40;;;;;;5038302;28;20444;-73
2023/06/04 08:42:57;;;;;;;0.73;0.52;;;24.80;78.60;;;;;;5034674;28;20464;-73
2023/06/04 08:45:25;;;;;;;0.77;0.47;;;25.20;80.30;;;;;;5033966;28;20468;-73
2023/06/04 08:47:53;;;;;;;0.70;0.60;;;25.50;82.70;;;;;;5036957;28;20443;-72
2023/06/04 08:50:24;;;;;;;0.57;0.57;;;25.70;83.20;;;;;;5035698;28;20951;-73
2023/06/04 08:52:56;;;;;;;0.40;0.40;;;25.40;82.40;;;;;;5039297;28;20524;-73
2023/06/04 08:55:23;;;;;;;0.30;0.30;;;25.40;81.50;;;;;;5039899;28;21132;-74
2023/06/04 08:57:51;;;;;;;0.40;0.40;;;24.90;79.90;;;;;;5033783;28;20867;-73
2023/06/04 09:00:18;;;;;;;0.45;0.30;;;24.60;77.80;;;;;;5040370;28;20437;-73
2023/06/04 09:02:49;;;;;;;0.30;0.30;;;24.60;77.30;;;;;;5038476;28;20520;-73
2023/06/04 09:05:21;;;;;;;0.30;0.30;;;25.00;79.20;;;;;;5033193;28;20457;-73
2023/06/04 09:07:54;;;;;;;0.35;0.35;;;25.60;83.30;;;;;;5033219;28;20471;-73
2023/06/04 09:10:26;;;;;;;0.55;0.55;;;25.80;84.80;;;;;;5067174;28;20464;-72
2023/06/04 09:12:56;;;;;;;0.40;0.40;;;25.80;84.80;;;;;;5039182;28;20429;-73
2023/06/04 09:15:23;;;;;;;0.52;0.52;;;26.20;86.80;;;;;;5038974;28;20520;-74
2023/06/04 09:17:50;;;;;;;3.10;0.40;;;26.30;88.20;;;;;;5036801;28;20440;-73
2023/06/04 09:20:21;;;;;;;0.50;0.50;;;26.10;87.20;;;;;;5033852;28;20455;-74
2023/06/04 09:22:49;;;;;;;1.30;0.57;;;26.20;85.80;;;;;;5034963;28;20705;-73
2023/06/04 09:25:42;;;;;;;3.90;0.68;;;25.90;84.40;;;;;;5034219;28;20738;-73
2023/06/04 09:28:09;;;;;;;0.73;0.63;;;26.00;84.00;;;;;;5036334;28;20433;-73
2023/06/04 09:30:37;;;;;;;0.50;0.43;;;25.80;84.10;;;;;;5034511;28;20843;-73
2023/06/04 09:33:08;;;;;;;0.40;0.40;;;26.20;85.50;;;;;;5038599;28;20486;-72
2023/06/04 09:35:35;;;;;;;0.80;0.32;;;26.40;87.50;;;;;;5033186;28;20488;-73
2023/06/04 09:38:05;;;;;;;0.80;0.80;;;26.40;87.70;;;;;;5031716;28;20626;-74
2023/06/04 09:40:37;;;;;;;0.40;0.40;;;26.30;86.80;;;;;;5025769;28;20433;-73
2023/06/04 09:43:06;;;;;;;0.40;0.40;;;26.20;86.30;;;;;;5050842;28;20523;-72
2023/06/04 09:45:36;;;;;;;0.30;0.30;;;25.70;83.30;;;;;;5029615;28;20911;-73
2023/06/04 09:48:04;;;;;;;0.40;0.40;;;25.80;88.80;;;;;;5035464;28;20433;-72
2023/06/04 09:50:38;;;;;;;0.35;0.35;;;26.10;84.70;;;;;;5036238;28;20892;-72
2023/06/04 09:53:17;;;;;;;0.40;0.40;;;25.90;85.00;;;;;;5035460;28;20438;-72
2023/06/04 09:55:56;;;;;;;0.60;0.60;;;26.30;85.50;;;;;;5037923;28;20429;-72
2023/06/04 09:58:25;;;;;;;0.70;0.70;;;25.90;84.90;;;;;;5040979;28;20461;-72
2023/06/04 10:00:55;;;;;;;1.05;0.40;;;26.00;84.10;;;;;;5038259;28;20436;-73
2023/06/04 10:03:25;;;;;;;0.40;0.40;;;25.90;84.60;;;;;;5038985;28;20967;-72
2023/06/04 10:05:57;;;;;;;0.40;0.40;;;26.00;84.00;;;;;;5040041;28;20521;-74
2023/06/04 10:08:26;;;;;;;0.47;0.47;;;26.30;87.70;;;;;;5041330;28;20514;-73
2023/06/04 10:10:57;;;;;;;0.50;0.50;;;26.40;85.60;;;;;;5043048;28;20529;-73
2023/06/04 10:13:27;;;;;;;1.08;0.35;;;26.30;85.00;;;;;;5036974;28;20498;-74
2023/06/04 10:15:58;;;;;;;0.50;0.40;;;26.30;86.00;;;;;;5034205;28;20805;-74
2023/06/04 10:18:26;;;;;;;1.17;0.50;;;26.30;84.90;;;;;;5040075;28;20429;-74
2023/06/04 10:20:55;;;;;;;0.30;0.30;;;26.60;87.00;;;;;;5037724;28;20429;-74
2023/06/04 10:23:31;;;;;;;0.50;0.50;;;26.90;88.50;;;;;;5053166;28;20430;-72
2023/06/04 10:26:00;;;;;;;0.30;0.30;;;26.90;96.10;;;;;;5035546;28;20436;-72
2023/06/04 10:28:28;;;;;;;0.35;0.35;;;26.40;85.50;;;;;;5038976;28;20447;-74
2023/06/04 10:30:54;;;;;;;0.38;0.38;;;26.80;88.50;;;;;;5038872;28;20599;-73
2023/06/04 10:33:28;;;;;;;0.38;0.38;;;27.00;90.10;;;;;;5038421;28;20938;-73
2023/06/04 10:35:56;;;;;;;0.40;0.40;;;26.70;86.70;;;;;;5035495;28;20450;-73
2023/06/04 10:38:23;;;;;;;0.50;0.50;;;26.80;87.60;;;;;;5038697;28;20443;-72
2023/06/04 10:40:50;;;;;;;1.20;0.40;;;27.00;87.10;;;;;;5068683;28;20818;-72
2023/06/04 10:43:18;;;;;;;1.30;0.60;;;27.00;87.30;;;;;;5034971;28;20855;-72
2023/06/04 10:45:45;;;;;;;1.05;0.63;;;27.40;89.60;;;;;;5069284;28;20502;-72
2023/06/04 10:48:12;;;;;;;0.40;0.40;;;27.40;90.30;;;;;;5036591;28;20448;-72
2023/06/04 10:50:51;;;;;;;0.50;0.50;;;27.20;89.60;;;;;;5036472;28;20441;-72
2023/06/04 10:53:19;;;;;;;0.40;0.40;;;27.50;89.90;;;;;;5072016;28;20539;-73
2023/06/04 10:55:48;;;;;;;0.50;0.50;;;27.90;91.30;;;;;;5034613;28;20536;-74
2023/06/04 10:58:15;;;;;;;0.30;0.30;;;27.20;89.40;;;;;;5038481;28;20516;-72
2023/06/04 11:00:46;;;;;;;0.30;0.30;;;27.40;90.00;;;;;;5069691;28;20431;-72
2023/06/04 11:03:14;;;;;;;0.53;0.50;;;27.60;90.40;;;;;;5040527;28;20531;-72
2023/06/04 11:05:47;;;;;;;0.25;0.25;;;27.70;90.70;;;;;;5063524;28;20456;-72
2023/06/04 11:08:26;;;;;;;0.75;0.40;;;27.40;89.70;;;;;;5038329;28;20872;-72
2023/06/04 11:10:52;;;;;;;0.60;0.60;;;26.90;86.70;;;;;;5044369;28;21001;-72
2023/06/04 11:13:26;;;;;;;3.20;0.40;;;26.90;85.90;;;;;;5040481;28;20440;-73
2023/06/04 11:15:53;;;;;;;0.40;0.40;;;26.20;81.50;;;;;;5039997;28;20437;-72
2023/06/04 11:18:23;;;;;;;0.30;0.30;;;26.10;82.10;;;;;;5039855;28;20441;-73
2023/06/04 11:20:59;;;;;;;0.55;0.50;;;26.60;83.90;;;;;;5041269;28;20436;-73
2023/06/04 11:23:29;;;;;;;0.50;0.50;;;27.00;87.00;;;;;;5036788;28;20425;-73
2023/06/04 11:25:58;;;;;;;0.57;0.57;;;26.70;84.70;;;;;;5035902;28;20421;-74
2023/06/04 11:28:28;;;;;;;0.40;0.40;;;26.90;85.50;;;;;;5035471;28;20448;-73
2023/06/04 11:30:59;;;;;;;0.40;0.35;;;27.10;86.00;;;;;;5071628;28;20511;-73
2023/06/04 11:33:26;;;;;;;0.40;0.40;;;27.20;87.10;;;;;;5039622;28;20924;-74
2023/06/04 11:35:53;;;;;;;0.30;0.30;;;27.50;88.50;;;;;;5070962;28;20441;-74
2023/06/04 11:38:25;;;;;;;0.30;0.30;;;27.70;89.70;;;;;;5037661;28;20429;-73
2023/06/04 11:40:59;;;;;;;0.50;0.50;;;27.90;90.50;;;;;;5035677;28;20425;-74
2023/06/04 11:43:27;;;;;;;0.50;0.50;;;28.20;91.40;;;;;;5039782;28;20437;-74
2023/06/04 11:45:55;;;;;;;0.90;0.60;;;28.30;91.70;;;;;;5074824;28;20795;-73
2023/06/04 11:48:22;;;;;;;0.80;0.40;;;28.60;92.70;;;;;;5032644;28;20800;-74
2023/06/04 11:50:49;;;;;;;0.45;0.43;;;28.50;92.10;;;;;;5041899;28;20459;-73
2023/06/04 11:53:17;;;;;;;2.50;0.60;;;28.40;91.80;;;;;;5041252;28;20437;-74
2023/06/04 11:55:44;;;;;;;0.32;0.32;;;28.50;92.00;;;;;;5041035;28;20512;-73
2023/06/04 11:58:11;;;;;;;0.50;0.50;;;28.30;91.30;;;;;;5035128;28;20454;-74
2023/06/04 12:00:37;;;;;;;0.50;0.50;;;28.30;91.50;;;;;;5039410;28;20440;-73
2023/06/04 12:03:04;;;;;;;0.60;0.60;;;28.10;90.80;;;;;;5035467;28;20425;-71
2023/06/04 12:05:34;;;;;;;0.50;0.50;;;27.80;90.70;;;;;;5038844;28;21184;-75
2023/06/04 12:08:09;;;;;;;2.50;1.00;;;27.90;90.10;;;;;;5073460;28;20441;-73
2023/06/04 12:10:41;;;;;;;0.50;0.50;;;27.40;87.40;;;;;;5039452;28;20847;-72
2023/06/04 12:13:09;;;;;;;0.30;0.30;;;27.90;90.00;;;;;;5044545;28;20436;-73
2023/06/04 12:15:36;;;;;;;0.50;0.50;;;28.20;91.60;;;;;;5039924;28;20479;-73
2023/06/04 12:18:04;;;;;;;0.43;0.43;;;28.30;91.30;;;;;;5040038;28;20963;-72
2023/06/04 12:20:39;;;;;;;1.17;0.50;;;28.30;91.40;;;;;;5039565;28;20524;-73
2023/06/04 12:23:07;;;;;;;0.50;0.50;;;28.20;90.80;;;;;;5038287;28;20435;-73
2023/06/04 12:25:35;;;;;;;1.10;0.50;;;28.00;90.60;;;;;;5039514;28;20432;-72
2023/06/04 12:28:04;;;;;;;0.40;0.40;;;28.30;90.90;;;;;;5039690;28;21181;-72
2023/06/04 12:30:40;;;;;;;0.50;0.40;;;28.40;91.40;;;;;;5037338;28;21224;-72
2023/06/04 12:33:07;;;;;;;0.50;0.50;;;28.70;92.30;;;;;;5040253;28;20428;-73
2023/06/04 12:35:35;;;;;;;0.40;0.40;;;28.80;92.70;;;;;;5040467;28;20467;-72
2023/06/04 12:38:05;;;;;;;0.40;0.40;;;28.80;92.20;;;;;;5042977;28;20429;-73
2023/06/04 12:40:31;;;;;;;0.50;0.50;;;28.80;91.80;;;;;;5039469;28;20527;-74
2023/06/04 12:43:00;;;;;;;0.38;0.38;;;28.40;91.30;;;;;;5044729;28;20512;-74
2023/06/04 12:45:27;;;;;;;0.50;0.50;;;28.80;92.50;;;;;;5041298;28;20438;-72
2023/06/04 12:47:54;;;;;;;0.40;0.40;;;28.70;92.70;;;;;;5042648;28;20444;-73
2023/06/04 12:50:21;;;;;;;1.35;0.50;;;28.70;92.40;;;;;;5037588;28;20513;-72
2023/06/04 12:52:48;;;;;;;0.40;0.40;;;28.90;99.70;;;;;;5038196;28;20429;-73
2023/06/04 12:55:15;;;;;;;0.68;0.68;;;28.90;92.90;;;;;;5038478;28;20771;-73